Durham, Arkansas
Current Conditions -  °F | °C
As of 5:53 AM on Sunday 21 Dec 2014 (Local Time) from KFYV Reporting Station
Haze Haze  
Wind Chill:   Ceiling: 2700
Heat Index:   Visibility: 6mi
Dew Point:   Wind: 5mph
Humidity: 93%   Direction: 150°SSE
Pressure: 30.12"   Gusts: NA
Location:  35.9902°N, 94.083°W
Report Text: KFYV 211153Z 15004KT 6SM BR FEW013 OVC027 05/04 A3012 RMK AO2 SLP202 T00500039 10056 20044 56013
Loading
Personal Weather Stations






























Interactive Weather Map New forecast layout! Learn more

10-Day Weather Forecast

Advertisements
Track Severe Weather on mobile